No particular awareness of the weather is required.    There are no Weather-warnings

Webcam Vacarisses more information Webcam Vacarisses


Thunder radar more information blitzortung!


Rain radar more information rain snow radar


Visit our other weather sites:

Template documentation
and downloads

And another site



Nearby METAR Reports

   
EBAW - Antwerp
Updated: 15-08-2018 22:20
Clear  
Clear  
   Wind: South 7.4 km/h
Wind: South 7.4 km/h
Temperature: 19°C
Dew Point: 14°C
Humidity: 73%
Barometer: 1018 hPa
Visibility: More than 10 km
Cloud details: Clear
EBAW 152020Z 17004KT CAVOK 19/14 Q1018 NOSIG
EBLG - Li├Ęge
Updated: 15-08-2018 22:20
Few Clouds  
Few Clouds  
   Wind: SW 11.1 km/h
Wind: SW 11.1 km/h
Temperature: 18°C
Dew Point: 14°C
Humidity: 78%
Barometer: 1019 hPa
Clouds: Few Clouds
Visibility: More than 10 km
Cloud details: Few Clouds 3500 ft
EBLG 152020Z 22006KT 9999 FEW035 18/14 Q1019 NOSIG
EBCV - Mons/Bergen
Updated: 15-08-2018 21:55
Mostly Cloudy  
Mostly Cloudy  
   Wind: South 9.3 km/h
Wind: South 9.3 km/h
Temperature: 18°C
Dew Point: 14°C
Humidity: 78%
Barometer: 1019 hPa
Clouds: Mostly Cloudy
Visibility: More than 10 km
Cloud details: Mostly Cloudy 3700 ft
EBCV 151955Z AUTO 18005KT 9999 BKN037/// 18/14 Q1019 BLU
EHBK - Maastricht
Updated: 15-08-2018 22:25
Clear  
Clear  
   Wind: South 5.6 km/h
Wind: South 5.6 km/h
Temperature: 17°C
Dew Point: 15°C
Humidity: 88%
Barometer: 1019 hPa
Clouds: Clear
Visibility: More than 10 km
Cloud details: Clear
EHBK 152025Z AUTO 18003KT 9999 NCD 17/15 Q1019 NOSIG
ELLX - Luxemburg
Updated: 15-08-2018 22:20
Clear  
Clear  
   Wind: West 11.1 km/h
Wind: West 11.1 km/h
Temperature: 17°C
Dew Point: 14°C
Humidity: 83%
Barometer: 1020 hPa
Visibility: More than 10 km
Cloud details: Clear
ELLX 152020Z 28006KT CAVOK 17/14 Q1020 NOSIG
EBOS - Oostende
Updated: 15-08-2018 22:20
Few Clouds  
Few Clouds  
   Wind: SSW 13 km/h
Wind: SSW 13 km/h
Temperature: 16°C
Dew Point: 12°C
Humidity: 77%
Barometer: 1018 hPa
Clouds: Few Clouds
Visibility: More than 10 km
Cloud details: Few Clouds 3000 ft
EBOS 152020Z 21007KT 9999 FEW030 16/12 Q1018 NOSIG

Script developed by  Saratoga-weather.org Adapted for the template by  Weerstation Leuven

You find our weather info also at:

UK Metoffice

European Weather Network

WeatherCloud

Weather Underground

AWEKAS

WeatherlinkIP

Citizen Weather Observer Program (CWOP)

HAMweather, WeatherForYou, PWS Weather

Equipment we use:

Weather-station
Davis Vantage Vue

Weather-program
Weather Display

Weather-server
My Computer

Provider
My provider

Davis Vantage Vue

Weather Display

My Computer

My provider